sensor_id;sensor_type;location;lat;lon;timestamp;P1;durP1;ratioP1;P2;durP2;ratioP2
51724;SDS011;37801;53.224;6.552;2022-12-18T00:00:46;70.63;;;29.20;;
51724;SDS011;37801;53.224;6.552;2022-12-18T00:03:13;73.72;;;29.45;;
51724;SDS011;37801;53.224;6.552;2022-12-18T00:05:46;67.60;;;29.10;;
51724;SDS011;37801;53.224;6.552;2022-12-18T00:08:17;70.10;;;28.65;;
51724;SDS011;37801;53.224;6.552;2022-12-18T00:10:43;66.80;;;26.92;;
51724;SDS011;37801;53.224;6.552;2022-12-18T00:13:09;74.32;;;27.27;;
51724;SDS011;37801;53.224;6.552;2022-12-18T00:15:36;72.13;;;28.67;;
51724;SDS011;37801;53.224;6.552;2022-12-18T00:18:02;68.05;;;29.10;;
51724;SDS011;37801;53.224;6.552;2022-12-18T00:20:28;64.90;;;26.13;;
51724;SDS011;37801;53.224;6.552;2022-12-18T00:22:54;63.45;;;26.95;;
51724;SDS011;37801;53.224;6.552;2022-12-18T00:25:20;65.18;;;27.05;;
51724;SDS011;37801;53.224;6.552;2022-12-18T00:27:46;62.25;;;26.90;;
51724;SDS011;37801;53.224;6.552;2022-12-18T00:30:13;66.93;;;28.20;;
51724;SDS011;37801;53.224;6.552;2022-12-18T00:32:39;66.80;;;27.35;;
51724;SDS011;37801;53.224;6.552;2022-12-18T00:35:05;69.82;;;27.92;;
51724;SDS011;37801;53.224;6.552;2022-12-18T00:37:33;66.20;;;27.60;;
51724;SDS011;37801;53.224;6.552;2022-12-18T00:39:59;67.38;;;27.52;;
51724;SDS011;37801;53.224;6.552;2022-12-18T00:42:25;64.22;;;26.02;;
51724;SDS011;37801;53.224;6.552;2022-12-18T00:45:09;60.83;;;25.58;;
51724;SDS011;37801;53.224;6.552;2022-12-18T00:47:35;60.72;;;25.45;;
51724;SDS011;37801;53.224;6.552;2022-12-18T00:50:01;63.35;;;24.67;;
51724;SDS011;37801;53.224;6.552;2022-12-18T00:52:26;62.95;;;25.27;;
51724;SDS011;37801;53.224;6.552;2022-12-18T00:54:52;60.60;;;24.52;;
51724;SDS011;37801;53.224;6.552;2022-12-18T00:57:17;64.53;;;26.67;;
51724;SDS011;37801;53.224;6.552;2022-12-18T00:59:43;62.97;;;26.13;;
51724;SDS011;37801;53.224;6.552;2022-12-18T01:02:09;59.63;;;24.42;;
51724;SDS011;37801;53.224;6.552;2022-12-18T01:04:34;59.50;;;24.85;;
51724;SDS011;37801;53.224;6.552;2022-12-18T01:07:00;56.50;;;24.02;;
51724;SDS011;37801;53.224;6.552;2022-12-18T01:09:26;54.40;;;24.17;;
51724;SDS011;37801;53.224;6.552;2022-12-18T01:11:52;55.08;;;23.95;;
51724;SDS011;37801;53.224;6.552;2022-12-18T01:14:17;55.75;;;23.67;;
51724;SDS011;37801;53.224;6.552;2022-12-18T01:16:43;58.03;;;24.05;;
51724;SDS011;37801;53.224;6.552;2022-12-18T01:19:09;59.65;;;23.75;;
51724;SDS011;37801;53.224;6.552;2022-12-18T01:21:34;58.72;;;25.25;;
51724;SDS011;37801;53.224;6.552;2022-12-18T01:24:00;63.20;;;24.90;;
51724;SDS011;37801;53.224;6.552;2022-12-18T01:26:26;56.05;;;24.40;;
51724;SDS011;37801;53.224;6.552;2022-12-18T01:28:55;56.60;;;25.25;;
51724;SDS011;37801;53.224;6.552;2022-12-18T01:31:28;67.95;;;26.45;;
51724;SDS011;37801;53.224;6.552;2022-12-18T01:36:25;59.53;;;24.20;;
51724;SDS011;37801;53.224;6.552;2022-12-18T01:38:53;56.55;;;23.05;;
51724;SDS011;37801;53.224;6.552;2022-12-18T01:41:20;54.65;;;23.23;;
51724;SDS011;37801;53.224;6.552;2022-12-18T01:43:55;61.92;;;24.35;;
51724;SDS011;37801;53.224;6.552;2022-12-18T01:46:23;65.63;;;25.92;;
51724;SDS011;37801;53.224;6.552;2022-12-18T01:48:53;59.78;;;24.95;;
51724;SDS011;37801;53.224;6.552;2022-12-18T01:51:27;58.92;;;23.17;;
51724;SDS011;37801;53.224;6.552;2022-12-18T01:53:54;61.10;;;24.50;;
51724;SDS011;37801;53.224;6.552;2022-12-18T01:56:20;63.38;;;25.95;;
51724;SDS011;37801;53.224;6.552;2022-12-18T01:58:52;62.30;;;25.42;;
51724;SDS011;37801;53.224;6.552;2022-12-18T02:01:23;58.53;;;24.30;;
51724;SDS011;37801;53.224;6.552;2022-12-18T02:03:50;59.30;;;22.77;;
51724;SDS011;37801;53.224;6.552;2022-12-18T02:06:27;51.67;;;21.88;;
51724;SDS011;37801;53.224;6.552;2022-12-18T02:09:02;56.35;;;23.30;;
51724;SDS011;37801;53.224;6.552;2022-12-18T02:14:46;55.28;;;22.88;;
51724;SDS011;37801;53.224;6.552;2022-12-18T02:19:47;58.97;;;24.33;;
51724;SDS011;37801;53.224;6.552;2022-12-18T02:27:41;52.97;;;21.42;;
51724;SDS011;37801;53.224;6.552;2022-12-18T02:30:11;58.30;;;23.42;;
51724;SDS011;37801;53.224;6.552;2022-12-18T02:32:40;55.17;;;23.58;;
51724;SDS011;37801;53.224;6.552;2022-12-18T02:35:11;51.95;;;22.85;;
51724;SDS011;37801;53.224;6.552;2022-12-18T02:37:39;53.78;;;23.35;;
51724;SDS011;37801;53.224;6.552;2022-12-18T02:40:08;57.15;;;22.98;;
51724;SDS011;37801;53.224;6.552;2022-12-18T02:42:36;62.65;;;26.17;;
51724;SDS011;37801;53.224;6.552;2022-12-18T02:45:02;61.92;;;24.30;;
51724;SDS011;37801;53.224;6.552;2022-12-18T02:47:29;65.70;;;25.25;;
51724;SDS011;37801;53.224;6.552;2022-12-18T02:55:13;59.58;;;23.92;;
51724;SDS011;37801;53.224;6.552;2022-12-18T03:00:38;58.67;;;24.88;;
51724;SDS011;37801;53.224;6.552;2022-12-18T03:03:26;62.47;;;24.10;;
51724;SDS011;37801;53.224;6.552;2022-12-18T03:06:05;60.72;;;24.70;;
51724;SDS011;37801;53.224;6.552;2022-12-18T03:08:46;65.25;;;25.98;;
51724;SDS011;37801;53.224;6.552;2022-12-18T03:11:16;59.17;;;24.75;;
51724;SDS011;37801;53.224;6.552;2022-12-18T03:14:01;54.90;;;22.92;;
51724;SDS011;37801;53.224;6.552;2022-12-18T03:16:30;63.40;;;24.42;;
51724;SDS011;37801;53.224;6.552;2022-12-18T03:18:59;59.67;;;24.00;;
51724;SDS011;37801;53.224;6.552;2022-12-18T03:21:32;63.63;;;23.77;;
51724;SDS011;37801;53.224;6.552;2022-12-18T03:24:02;64.15;;;24.77;;
51724;SDS011;37801;53.224;6.552;2022-12-18T03:26:32;55.22;;;23.05;;
51724;SDS011;37801;53.224;6.552;2022-12-18T03:29:02;63.08;;;25.63;;
51724;SDS011;37801;53.224;6.552;2022-12-18T03:31:31;58.70;;;23.98;;
51724;SDS011;37801;53.224;6.552;2022-12-18T03:34:01;60.53;;;24.42;;
51724;SDS011;37801;53.224;6.552;2022-12-18T03:36:30;67.80;;;25.63;;
51724;SDS011;37801;53.224;6.552;2022-12-18T03:38:56;62.78;;;24.88;;
51724;SDS011;37801;53.224;6.552;2022-12-18T03:42:25;64.30;;;25.25;;
51724;SDS011;37801;53.224;6.552;2022-12-18T03:44:28;61.53;;;24.42;;
51724;SDS011;37801;53.224;6.552;2022-12-18T03:55:18;60.63;;;23.23;;
51724;SDS011;37801;53.224;6.552;2022-12-18T03:57:45;62.60;;;24.75;;
51724;SDS011;37801;53.224;6.552;2022-12-18T04:00:14;59.50;;;24.58;;
51724;SDS011;37801;53.224;6.552;2022-12-18T04:02:50;59.67;;;24.80;;
51724;SDS011;37801;53.224;6.552;2022-12-18T04:05:18;57.05;;;23.45;;
51724;SDS011;37801;53.224;6.552;2022-12-18T04:07:45;55.50;;;23.25;;
51724;SDS011;37801;53.224;6.552;2022-12-18T04:10:14;55.30;;;24.02;;
51724;SDS011;37801;53.224;6.552;2022-12-18T04:12:41;61.03;;;23.95;;
51724;SDS011;37801;53.224;6.552;2022-12-18T04:15:08;56.17;;;23.00;;
51724;SDS011;37801;53.224;6.552;2022-12-18T04:17:34;57.95;;;23.20;;
51724;SDS011;37801;53.224;6.552;2022-12-18T04:20:00;56.97;;;24.23;;
51724;SDS011;37801;53.224;6.552;2022-12-18T04:22:25;54.65;;;22.23;;
51724;SDS011;37801;53.224;6.552;2022-12-18T04:24:51;56.45;;;24.70;;
51724;SDS011;37801;53.224;6.552;2022-12-18T04:27:17;56.45;;;23.85;;
51724;SDS011;37801;53.224;6.552;2022-12-18T04:29:43;53.50;;;23.13;;
51724;SDS011;37801;53.224;6.552;2022-12-18T04:32:08;59.60;;;23.00;;
51724;SDS011;37801;53.224;6.552;2022-12-18T04:34:34;59.25;;;23.85;;
51724;SDS011;37801;53.224;6.552;2022-12-18T04:37:00;65.93;;;24.30;;
51724;SDS011;37801;53.224;6.552;2022-12-18T04:39:26;59.05;;;22.55;;
51724;SDS011;37801;53.224;6.552;2022-12-18T04:41:51;54.63;;;21.90;;
51724;SDS011;37801;53.224;6.552;2022-12-18T04:44:17;52.78;;;21.88;;
51724;SDS011;37801;53.224;6.552;2022-12-18T04:46:43;57.33;;;23.20;;
51724;SDS011;37801;53.224;6.552;2022-12-18T04:49:09;61.85;;;23.05;;
51724;SDS011;37801;53.224;6.552;2022-12-18T04:51:35;59.22;;;23.60;;
51724;SDS011;37801;53.224;6.552;2022-12-18T04:54:02;55.08;;;22.52;;
51724;SDS011;37801;53.224;6.552;2022-12-18T04:56:30;57.97;;;23.60;;
51724;SDS011;37801;53.224;6.552;2022-12-18T04:58:56;58.20;;;23.50;;
51724;SDS011;37801;53.224;6.552;2022-12-18T05:01:22;62.42;;;23.27;;
51724;SDS011;37801;53.224;6.552;2022-12-18T05:03:48;57.80;;;23.00;;
51724;SDS011;37801;53.224;6.552;2022-12-18T05:06:14;55.47;;;21.90;;
51724;SDS011;37801;53.224;6.552;2022-12-18T05:08:39;56.47;;;22.75;;
51724;SDS011;37801;53.224;6.552;2022-12-18T05:11:09;61.28;;;22.67;;
51724;SDS011;37801;53.224;6.552;2022-12-18T05:13:37;55.25;;;22.67;;
51724;SDS011;37801;53.224;6.552;2022-12-18T05:16:03;59.58;;;22.85;;
51724;SDS011;37801;53.224;6.552;2022-12-18T05:18:30;57.63;;;20.50;;
51724;SDS011;37801;53.224;6.552;2022-12-18T05:20:56;54.53;;;21.27;;
51724;SDS011;37801;53.224;6.552;2022-12-18T05:23:23;61.83;;;23.73;;
51724;SDS011;37801;53.224;6.552;2022-12-18T05:25:56;56.65;;;21.80;;
51724;SDS011;37801;53.224;6.552;2022-12-18T05:28:23;54.72;;;21.52;;
51724;SDS011;37801;53.224;6.552;2022-12-18T05:30:54;61.08;;;22.23;;
51724;SDS011;37801;53.224;6.552;2022-12-18T05:33:21;57.20;;;21.55;;
51724;SDS011;37801;53.224;6.552;2022-12-18T05:35:51;48.17;;;19.50;;
51724;SDS011;37801;53.224;6.552;2022-12-18T05:38:17;51.83;;;18.95;;
51724;SDS011;37801;53.224;6.552;2022-12-18T05:40:44;50.65;;;19.63;;
51724;SDS011;37801;53.224;6.552;2022-12-18T05:43:10;53.22;;;20.45;;
51724;SDS011;37801;53.224;6.552;2022-12-18T05:45:37;48.17;;;19.63;;
51724;SDS011;37801;53.224;6.552;2022-12-18T05:48:03;56.90;;;20.55;;
51724;SDS011;37801;53.224;6.552;2022-12-18T05:50:30;53.10;;;19.85;;
51724;SDS011;37801;53.224;6.552;2022-12-18T05:52:56;54.63;;;21.08;;
51724;SDS011;37801;53.224;6.552;2022-12-18T05:55:22;50.65;;;19.42;;
51724;SDS011;37801;53.224;6.552;2022-12-18T05:57:48;54.13;;;20.23;;
51724;SDS011;37801;53.224;6.552;2022-12-18T06:00:14;49.50;;;20.17;;
51724;SDS011;37801;53.224;6.552;2022-12-18T06:02:41;50.65;;;20.95;;
51724;SDS011;37801;53.224;6.552;2022-12-18T06:05:07;47.58;;;19.05;;
51724;SDS011;37801;53.224;6.552;2022-12-18T06:07:34;46.30;;;19.45;;
51724;SDS011;37801;53.224;6.552;2022-12-18T06:10:00;44.97;;;19.08;;
51724;SDS011;37801;53.224;6.552;2022-12-18T06:12:26;49.35;;;18.65;;
51724;SDS011;37801;53.224;6.552;2022-12-18T06:14:52;46.22;;;18.92;;
51724;SDS011;37801;53.224;6.552;2022-12-18T06:17:18;46.08;;;19.60;;
51724;SDS011;37801;53.224;6.552;2022-12-18T06:19:44;44.65;;;17.63;;
51724;SDS011;37801;53.224;6.552;2022-12-18T06:22:10;42.00;;;18.20;;
51724;SDS011;37801;53.224;6.552;2022-12-18T06:24:36;46.47;;;18.88;;
51724;SDS011;37801;53.224;6.552;2022-12-18T06:27:03;44.47;;;17.40;;
51724;SDS011;37801;53.224;6.552;2022-12-18T06:29:29;40.05;;;16.75;;
51724;SDS011;37801;53.224;6.552;2022-12-18T06:31:55;41.88;;;17.52;;
51724;SDS011;37801;53.224;6.552;2022-12-18T06:34:21;44.50;;;17.95;;
51724;SDS011;37801;53.224;6.552;2022-12-18T06:36:47;37.38;;;17.02;;
51724;SDS011;37801;53.224;6.552;2022-12-18T06:39:13;39.05;;;16.75;;
51724;SDS011;37801;53.224;6.552;2022-12-18T06:41:39;41.15;;;18.33;;
51724;SDS011;37801;53.224;6.552;2022-12-18T06:44:06;38.67;;;16.90;;
51724;SDS011;37801;53.224;6.552;2022-12-18T06:46:32;37.10;;;15.80;;
51724;SDS011;37801;53.224;6.552;2022-12-18T06:48:58;47.58;;;18.52;;
51724;SDS011;37801;53.224;6.552;2022-12-18T06:51:24;42.60;;;17.10;;
51724;SDS011;37801;53.224;6.552;2022-12-18T06:53:50;40.38;;;16.65;;
51724;SDS011;37801;53.224;6.552;2022-12-18T06:56:16;38.47;;;16.98;;
51724;SDS011;37801;53.224;6.552;2022-12-18T06:58:43;40.22;;;16.25;;
51724;SDS011;37801;53.224;6.552;2022-12-18T07:01:10;43.67;;;17.63;;
51724;SDS011;37801;53.224;6.552;2022-12-18T07:03:37;40.92;;;16.75;;
51724;SDS011;37801;53.224;6.552;2022-12-18T07:06:03;42.15;;;17.38;;
51724;SDS011;37801;53.224;6.552;2022-12-18T07:08:30;40.30;;;16.80;;
51724;SDS011;37801;53.224;6.552;2022-12-18T07:10:56;36.88;;;15.88;;
51724;SDS011;37801;53.224;6.552;2022-12-18T07:13:22;35.88;;;14.98;;
51724;SDS011;37801;53.224;6.552;2022-12-18T07:15:48;36.10;;;16.55;;
51724;SDS011;37801;53.224;6.552;2022-12-18T07:18:15;37.05;;;16.63;;
51724;SDS011;37801;53.224;6.552;2022-12-18T07:20:41;33.47;;;14.98;;
51724;SDS011;37801;53.224;6.552;2022-12-18T07:23:07;34.42;;;14.50;;
51724;SDS011;37801;53.224;6.552;2022-12-18T07:25:36;32.33;;;14.77;;
51724;SDS011;37801;53.224;6.552;2022-12-18T07:28:03;32.22;;;14.52;;
51724;SDS011;37801;53.224;6.552;2022-12-18T07:30:29;35.20;;;14.00;;
51724;SDS011;37801;53.224;6.552;2022-12-18T07:32:55;35.58;;;14.52;;
51724;SDS011;37801;53.224;6.552;2022-12-18T07:35:22;35.85;;;15.02;;
51724;SDS011;37801;53.224;6.552;2022-12-18T07:37:48;33.55;;;14.35;;
51724;SDS011;37801;53.224;6.552;2022-12-18T07:40:14;32.33;;;13.98;;
51724;SDS011;37801;53.224;6.552;2022-12-18T07:42:40;37.60;;;14.98;;
51724;SDS011;37801;53.224;6.552;2022-12-18T07:45:06;33.30;;;15.10;;
51724;SDS011;37801;53.224;6.552;2022-12-18T07:47:34;30.23;;;13.35;;
51724;SDS011;37801;53.224;6.552;2022-12-18T07:50:01;30.83;;;13.32;;
51724;SDS011;37801;53.224;6.552;2022-12-18T07:52:28;30.38;;;13.35;;
51724;SDS011;37801;53.224;6.552;2022-12-18T07:54:54;35.47;;;13.77;;
51724;SDS011;37801;53.224;6.552;2022-12-18T07:57:20;33.25;;;13.82;;
51724;SDS011;37801;53.224;6.552;2022-12-18T07:59:46;29.40;;;13.43;;
51724;SDS011;37801;53.224;6.552;2022-12-18T08:02:13;30.90;;;13.63;;
51724;SDS011;37801;53.224;6.552;2022-12-18T08:04:39;31.00;;;13.63;;
51724;SDS011;37801;53.224;6.552;2022-12-18T08:07:05;29.48;;;13.35;;
51724;SDS011;37801;53.224;6.552;2022-12-18T08:09:31;28.15;;;13.60;;
51724;SDS011;37801;53.224;6.552;2022-12-18T08:11:58;28.05;;;13.13;;
51724;SDS011;37801;53.224;6.552;2022-12-18T08:14:24;30.10;;;12.93;;
51724;SDS011;37801;53.224;6.552;2022-12-18T08:16:50;25.35;;;11.85;;
51724;SDS011;37801;53.224;6.552;2022-12-18T08:19:16;24.95;;;11.43;;
51724;SDS011;37801;53.224;6.552;2022-12-18T08:21:42;23.33;;;11.32;;
51724;SDS011;37801;53.224;6.552;2022-12-18T08:24:09;26.33;;;12.57;;
51724;SDS011;37801;53.224;6.552;2022-12-18T08:26:36;26.40;;;12.25;;
51724;SDS011;37801;53.224;6.552;2022-12-18T08:29:03;22.77;;;11.32;;
51724;SDS011;37801;53.224;6.552;2022-12-18T08:31:29;25.35;;;12.82;;
51724;SDS011;37801;53.224;6.552;2022-12-18T08:33:56;24.95;;;12.55;;
51724;SDS011;37801;53.224;6.552;2022-12-18T08:36:22;25.00;;;12.23;;
51724;SDS011;37801;53.224;6.552;2022-12-18T08:38:49;24.67;;;12.65;;
51724;SDS011;37801;53.224;6.552;2022-12-18T08:41:16;26.98;;;12.77;;
51724;SDS011;37801;53.224;6.552;2022-12-18T08:43:42;24.58;;;11.65;;
51724;SDS011;37801;53.224;6.552;2022-12-18T08:46:27;26.23;;;11.93;;
51724;SDS011;37801;53.224;6.552;2022-12-18T08:48:54;26.35;;;12.27;;
51724;SDS011;37801;53.224;6.552;2022-12-18T08:51:21;24.40;;;12.07;;
51724;SDS011;37801;53.224;6.552;2022-12-18T08:53:47;29.00;;;12.75;;
51724;SDS011;37801;53.224;6.552;2022-12-18T08:56:13;30.15;;;14.07;;
51724;SDS011;37801;53.224;6.552;2022-12-18T08:58:40;26.88;;;13.00;;
51724;SDS011;37801;53.224;6.552;2022-12-18T09:01:08;27.05;;;13.48;;
51724;SDS011;37801;53.224;6.552;2022-12-18T09:03:34;32.72;;;14.60;;
51724;SDS011;37801;53.224;6.552;2022-12-18T09:06:01;31.73;;;14.02;;
51724;SDS011;37801;53.224;6.552;2022-12-18T09:08:27;28.95;;;13.90;;
51724;SDS011;37801;53.224;6.552;2022-12-18T09:10:53;24.58;;;12.63;;
51724;SDS011;37801;53.224;6.552;2022-12-18T09:13:20;27.60;;;13.38;;
51724;SDS011;37801;53.224;6.552;2022-12-18T09:15:51;25.65;;;12.48;;
51724;SDS011;37801;53.224;6.552;2022-12-18T09:18:18;30.42;;;13.88;;
51724;SDS011;37801;53.224;6.552;2022-12-18T09:20:45;27.85;;;13.60;;
51724;SDS011;37801;53.224;6.552;2022-12-18T09:23:11;29.38;;;13.05;;
51724;SDS011;37801;53.224;6.552;2022-12-18T09:25:38;28.00;;;13.63;;
51724;SDS011;37801;53.224;6.552;2022-12-18T09:28:06;28.05;;;13.55;;
51724;SDS011;37801;53.224;6.552;2022-12-18T09:30:32;25.98;;;12.98;;
51724;SDS011;37801;53.224;6.552;2022-12-18T09:32:59;27.33;;;12.88;;
51724;SDS011;37801;53.224;6.552;2022-12-18T09:35:25;25.08;;;12.68;;
51724;SDS011;37801;53.224;6.552;2022-12-18T09:37:53;23.95;;;11.82;;
51724;SDS011;37801;53.224;6.552;2022-12-18T09:40:20;24.02;;;11.85;;
51724;SDS011;37801;53.224;6.552;2022-12-18T09:42:50;21.63;;;11.85;;
51724;SDS011;37801;53.224;6.552;2022-12-18T09:45:17;23.70;;;11.93;;
51724;SDS011;37801;53.224;6.552;2022-12-18T09:47:44;24.75;;;12.00;;
51724;SDS011;37801;53.224;6.552;2022-12-18T09:52:43;21.40;;;11.50;;
51724;SDS011;37801;53.224;6.552;2022-12-18T09:55:22;24.85;;;12.50;;
51724;SDS011;37801;53.224;6.552;2022-12-18T09:57:58;26.33;;;12.27;;
51724;SDS011;37801;53.224;6.552;2022-12-18T10:00:26;22.48;;;11.25;;
51724;SDS011;37801;53.224;6.552;2022-12-18T10:02:53;22.33;;;11.30;;
51724;SDS011;37801;53.224;6.552;2022-12-18T10:06:04;23.35;;;11.50;;
51724;SDS011;37801;53.224;6.552;2022-12-18T10:10:57;20.27;;;9.85;;
51724;SDS011;37801;53.224;6.552;2022-12-18T10:13:34;19.00;;;9.88;;
51724;SDS011;37801;53.224;6.552;2022-12-18T10:21:16;18.73;;;9.13;;
51724;SDS011;37801;53.224;6.552;2022-12-18T10:23:48;16.45;;;9.40;;
51724;SDS011;37801;53.224;6.552;2022-12-18T10:26:15;18.83;;;9.65;;
51724;SDS011;37801;53.224;6.552;2022-12-18T10:28:41;17.65;;;9.00;;
51724;SDS011;37801;53.224;6.552;2022-12-18T10:31:15;17.00;;;9.18;;
51724;SDS011;37801;53.224;6.552;2022-12-18T10:33:42;18.13;;;9.40;;
51724;SDS011;37801;53.224;6.552;2022-12-18T10:36:08;17.95;;;8.77;;
51724;SDS011;37801;53.224;6.552;2022-12-18T10:38:35;17.20;;;8.82;;
51724;SDS011;37801;53.224;6.552;2022-12-18T10:41:05;17.92;;;8.52;;
51724;SDS011;37801;53.224;6.552;2022-12-18T10:43:37;16.13;;;8.27;;
51724;SDS011;37801;53.224;6.552;2022-12-18T10:51:05;15.38;;;8.38;;
51724;SDS011;37801;53.224;6.552;2022-12-18T10:53:32;17.90;;;8.45;;
51724;SDS011;37801;53.224;6.552;2022-12-18T10:55:59;16.92;;;8.10;;
51724;SDS011;37801;53.224;6.552;2022-12-18T10:58:36;14.80;;;7.97;;
51724;SDS011;37801;53.224;6.552;2022-12-18T11:06:17;13.50;;;7.20;;
51724;SDS011;37801;53.224;6.552;2022-12-18T11:08:44;19.27;;;8.00;;
51724;SDS011;37801;53.224;6.552;2022-12-18T11:11:29;18.23;;;7.97;;
51724;SDS011;37801;53.224;6.552;2022-12-18T11:14:05;12.38;;;6.95;;
51724;SDS011;37801;53.224;6.552;2022-12-18T11:16:33;14.50;;;7.30;;
51724;SDS011;37801;53.224;6.552;2022-12-18T11:19:34;12.63;;;6.85;;
51724;SDS011;37801;53.224;6.552;2022-12-18T11:21:53;12.88;;;6.75;;
51724;SDS011;37801;53.224;6.552;2022-12-18T11:24:25;12.77;;;6.63;;
51724;SDS011;37801;53.224;6.552;2022-12-18T11:26:53;10.88;;;6.10;;
51724;SDS011;37801;53.224;6.552;2022-12-18T11:29:23;12.23;;;6.38;;
51724;SDS011;37801;53.224;6.552;2022-12-18T11:31:50;12.57;;;6.13;;
51724;SDS011;37801;53.224;6.552;2022-12-18T11:34:24;11.55;;;6.18;;
51724;SDS011;37801;53.224;6.552;2022-12-18T11:36:50;10.20;;;5.65;;
51724;SDS011;37801;53.224;6.552;2022-12-18T11:41:52;9.88;;;5.57;;
51724;SDS011;37801;53.224;6.552;2022-12-18T11:50:11;9.23;;;5.20;;
51724;SDS011;37801;53.224;6.552;2022-12-18T11:52:39;10.88;;;5.60;;
51724;SDS011;37801;53.224;6.552;2022-12-18T11:55:12;10.55;;;5.80;;
51724;SDS011;37801;53.224;6.552;2022-12-18T12:00:19;9.95;;;5.28;;
51724;SDS011;37801;53.224;6.552;2022-12-18T12:05:39;10.57;;;5.53;;
51724;SDS011;37801;53.224;6.552;2022-12-18T12:29:15;10.05;;;5.22;;
51724;SDS011;37801;53.224;6.552;2022-12-18T12:39:18;8.68;;;4.82;;
51724;SDS011;37801;53.224;6.552;2022-12-18T12:41:45;8.93;;;4.90;;
51724;SDS011;37801;53.224;6.552;2022-12-18T12:44:32;7.85;;;4.30;;
51724;SDS011;37801;53.224;6.552;2022-12-18T12:47:01;8.45;;;4.85;;
51724;SDS011;37801;53.224;6.552;2022-12-18T12:49:31;8.88;;;4.75;;
51724;SDS011;37801;53.224;6.552;2022-12-18T12:52:40;8.27;;;4.63;;
51724;SDS011;37801;53.224;6.552;2022-12-18T12:54:47;10.82;;;5.13;;
51724;SDS011;37801;53.224;6.552;2022-12-18T13:05:09;8.15;;;4.50;;
51724;SDS011;37801;53.224;6.552;2022-12-18T13:07:41;10.02;;;5.22;;
51724;SDS011;37801;53.224;6.552;2022-12-18T13:10:12;9.13;;;4.68;;
51724;SDS011;37801;53.224;6.552;2022-12-18T13:20:34;9.00;;;4.57;;
51724;SDS011;37801;53.224;6.552;2022-12-18T13:23:01;9.07;;;4.47;;
51724;SDS011;37801;53.224;6.552;2022-12-18T13:25:44;9.25;;;4.53;;
51724;SDS011;37801;53.224;6.552;2022-12-18T13:28:15;9.63;;;5.03;;
51724;SDS011;37801;53.224;6.552;2022-12-18T13:30:51;8.65;;;4.50;;
51724;SDS011;37801;53.224;6.552;2022-12-18T13:38:23;9.40;;;4.68;;
51724;SDS011;37801;53.224;6.552;2022-12-18T13:44:10;8.73;;;4.70;;
51724;SDS011;37801;53.224;6.552;2022-12-18T13:46:06;9.20;;;4.75;;
51724;SDS011;37801;53.224;6.552;2022-12-18T13:48:47;8.40;;;4.40;;
51724;SDS011;37801;53.224;6.552;2022-12-18T13:51:15;8.50;;;4.72;;
51724;SDS011;37801;53.224;6.552;2022-12-18T13:53:44;16.42;;;5.07;;
51724;SDS011;37801;53.224;6.552;2022-12-18T13:56:14;8.80;;;4.53;;
51724;SDS011;37801;53.224;6.552;2022-12-18T13:58:41;8.57;;;4.47;;
51724;SDS011;37801;53.224;6.552;2022-12-18T14:01:20;12.98;;;5.03;;
51724;SDS011;37801;53.224;6.552;2022-12-18T14:03:47;10.43;;;4.88;;
51724;SDS011;37801;53.224;6.552;2022-12-18T14:06:13;9.23;;;4.95;;
51724;SDS011;37801;53.224;6.552;2022-12-18T14:08:40;9.23;;;4.88;;
51724;SDS011;37801;53.224;6.552;2022-12-18T14:11:07;9.30;;;4.93;;
51724;SDS011;37801;53.224;6.552;2022-12-18T14:13:35;7.72;;;4.68;;
51724;SDS011;37801;53.224;6.552;2022-12-18T14:16:03;8.82;;;4.72;;
51724;SDS011;37801;53.224;6.552;2022-12-18T14:18:50;10.93;;;5.30;;
51724;SDS011;37801;53.224;6.552;2022-12-18T14:21:20;10.55;;;5.03;;
51724;SDS011;37801;53.224;6.552;2022-12-18T14:23:47;10.98;;;5.00;;
51724;SDS011;37801;53.224;6.552;2022-12-18T14:26:20;9.25;;;4.82;;
51724;SDS011;37801;53.224;6.552;2022-12-18T14:28:47;8.68;;;5.20;;
51724;SDS011;37801;53.224;6.552;2022-12-18T14:31:17;9.27;;;5.18;;
51724;SDS011;37801;53.224;6.552;2022-12-18T14:33:44;10.95;;;5.40;;
51724;SDS011;37801;53.224;6.552;2022-12-18T14:36:15;9.13;;;4.97;;
51724;SDS011;37801;53.224;6.552;2022-12-18T14:38:42;10.23;;;5.15;;
51724;SDS011;37801;53.224;6.552;2022-12-18T14:41:12;11.05;;;5.38;;
51724;SDS011;37801;53.224;6.552;2022-12-18T14:43:40;10.02;;;5.60;;
51724;SDS011;37801;53.224;6.552;2022-12-18T14:49:28;11.75;;;6.03;;
51724;SDS011;37801;53.224;6.552;2022-12-18T14:51:56;11.48;;;6.25;;
51724;SDS011;37801;53.224;6.552;2022-12-18T14:54:23;11.23;;;5.70;;
51724;SDS011;37801;53.224;6.552;2022-12-18T14:56:51;10.23;;;6.00;;
51724;SDS011;37801;53.224;6.552;2022-12-18T14:59:19;9.85;;;5.40;;
51724;SDS011;37801;53.224;6.552;2022-12-18T15:04:29;11.02;;;6.03;;
51724;SDS011;37801;53.224;6.552;2022-12-18T15:09:35;12.00;;;6.35;;
51724;SDS011;37801;53.224;6.552;2022-12-18T15:12:01;13.07;;;6.70;;
51724;SDS011;37801;53.224;6.552;2022-12-18T15:14:37;10.27;;;5.90;;
51724;SDS011;37801;53.224;6.552;2022-12-18T15:17:15;10.57;;;5.93;;
51724;SDS011;37801;53.224;6.552;2022-12-18T15:19:42;11.07;;;6.15;;
51724;SDS011;37801;53.224;6.552;2022-12-18T15:24:51;10.93;;;6.57;;
51724;SDS011;37801;53.224;6.552;2022-12-18T15:27:21;12.18;;;6.72;;
51724;SDS011;37801;53.224;6.552;2022-12-18T15:32:39;11.18;;;6.35;;
51724;SDS011;37801;53.224;6.552;2022-12-18T15:37:34;12.52;;;6.07;;
51724;SDS011;37801;53.224;6.552;2022-12-18T15:40:01;12.82;;;6.93;;
51724;SDS011;37801;53.224;6.552;2022-12-18T15:42:27;11.40;;;6.60;;
51724;SDS011;37801;53.224;6.552;2022-12-18T15:45:12;11.27;;;6.18;;
51724;SDS011;37801;53.224;6.552;2022-12-18T15:47:39;10.90;;;5.95;;
51724;SDS011;37801;53.224;6.552;2022-12-18T15:50:06;13.15;;;6.68;;
51724;SDS011;37801;53.224;6.552;2022-12-18T15:52:35;12.95;;;6.45;;
51724;SDS011;37801;53.224;6.552;2022-12-18T15:55:02;12.30;;;6.82;;
51724;SDS011;37801;53.224;6.552;2022-12-18T15:57:47;11.35;;;6.25;;
51724;SDS011;37801;53.224;6.552;2022-12-18T16:00:14;12.90;;;7.25;;
51724;SDS011;37801;53.224;6.552;2022-12-18T16:02:40;11.95;;;5.60;;
51724;SDS011;37801;53.224;6.552;2022-12-18T16:05:11;11.07;;;5.95;;
51724;SDS011;37801;53.224;6.552;2022-12-18T16:10:06;13.15;;;7.28;;
51724;SDS011;37801;53.224;6.552;2022-12-18T16:12:32;14.27;;;6.82;;
51724;SDS011;37801;53.224;6.552;2022-12-18T16:14:58;14.18;;;6.72;;
51724;SDS011;37801;53.224;6.552;2022-12-18T16:17:24;12.27;;;5.95;;
51724;SDS011;37801;53.224;6.552;2022-12-18T16:19:51;13.57;;;7.18;;
51724;SDS011;37801;53.224;6.552;2022-12-18T16:22:21;11.80;;;6.38;;
51724;SDS011;37801;53.224;6.552;2022-12-18T16:24:47;10.18;;;6.00;;
51724;SDS011;37801;53.224;6.552;2022-12-18T16:27:14;12.32;;;6.90;;
51724;SDS011;37801;53.224;6.552;2022-12-18T16:29:40;14.10;;;6.78;;
51724;SDS011;37801;53.224;6.552;2022-12-18T16:32:06;12.75;;;7.07;;
51724;SDS011;37801;53.224;6.552;2022-12-18T16:34:34;11.43;;;6.68;;
51724;SDS011;37801;53.224;6.552;2022-12-18T16:37:02;12.38;;;6.57;;
51724;SDS011;37801;53.224;6.552;2022-12-18T16:39:29;11.45;;;6.72;;
51724;SDS011;37801;53.224;6.552;2022-12-18T16:41:56;12.02;;;6.78;;
51724;SDS011;37801;53.224;6.552;2022-12-18T16:44:22;11.63;;;6.85;;
51724;SDS011;37801;53.224;6.552;2022-12-18T16:46:48;11.82;;;7.18;;
51724;SDS011;37801;53.224;6.552;2022-12-18T16:49:15;11.80;;;6.63;;